createdAt,value
2019-01-18T00:00:46.553Z,994.06
2019-01-18T00:01:46.563Z,994.15
2019-01-18T00:02:46.580Z,994.13
2019-01-18T00:03:46.596Z,994.18
2019-01-18T00:04:46.613Z,994.19
2019-01-18T00:05:46.632Z,994.2
2019-01-18T00:06:46.644Z,994.2
2019-01-18T00:07:46.661Z,994.24
2019-01-18T00:08:46.676Z,994.22
2019-01-18T00:09:46.692Z,994.28
2019-01-18T00:10:46.713Z,994.23
2019-01-18T00:11:46.725Z,994.25
2019-01-18T00:12:46.740Z,994.29
2019-01-18T00:13:46.759Z,994.32
2019-01-18T00:14:46.774Z,994.35
2019-01-18T00:15:46.788Z,994.35
2019-01-18T00:16:46.847Z,994.38
2019-01-18T00:17:46.826Z,994.46
2019-01-18T00:18:46.840Z,994.47
2019-01-18T00:19:46.853Z,994.48
2019-01-18T00:20:46.876Z,994.52
2019-01-18T00:21:46.893Z,994.54
2019-01-18T00:22:46.907Z,994.56
2019-01-18T00:23:46.919Z,994.62
2019-01-18T00:24:46.935Z,994.6
2019-01-18T00:25:46.952Z,994.62
2019-01-18T00:26:46.969Z,994.6
2019-01-18T00:27:46.983Z,994.62
2019-01-18T00:28:47.003Z,994.68
2019-01-18T00:29:47.016Z,994.69
2019-01-18T00:30:47.031Z,994.67
2019-01-18T00:31:47.050Z,994.75
2019-01-18T00:32:47.065Z,994.69
2019-01-18T00:33:47.083Z,994.72
2019-01-18T00:34:47.102Z,994.77
2019-01-18T00:35:47.113Z,994.8
2019-01-18T00:36:47.131Z,994.78
2019-01-18T00:37:47.147Z,994.84
2019-01-18T00:38:47.165Z,994.88
2019-01-18T00:39:47.179Z,994.92
2019-01-18T00:40:47.196Z,994.91
2019-01-18T00:41:47.216Z,994.91
2019-01-18T00:42:47.232Z,994.94
2019-01-18T00:43:47.283Z,994.93
2019-01-18T00:44:47.261Z,994.99
2019-01-18T00:45:47.278Z,995.02
2019-01-18T00:46:47.293Z,995.03
2019-01-18T00:47:47.310Z,995.04
2019-01-18T00:48:47.396Z,995.08
2019-01-18T00:49:47.341Z,995.11
2019-01-18T00:50:47.357Z,995.07
2019-01-18T00:51:47.378Z,995.13
2019-01-18T00:52:47.391Z,995.15
2019-01-18T00:53:47.408Z,995.18
2019-01-18T00:54:47.424Z,995.19
2019-01-18T00:55:47.444Z,995.17
2019-01-18T00:56:47.457Z,995.16
2019-01-18T00:57:47.473Z,995.17
2019-01-18T00:58:47.494Z,995.16
2019-01-18T00:59:47.510Z,995.14
2019-01-18T01:00:47.521Z,995.18
2019-01-18T01:01:47.538Z,995.24
2019-01-18T01:02:47.553Z,995.24
2019-01-18T01:03:47.574Z,995.28
2019-01-18T01:04:47.586Z,995.32
2019-01-18T01:05:47.607Z,995.3
2019-01-18T01:06:47.617Z,995.33
2019-01-18T01:07:47.636Z,995.31
2019-01-18T01:08:47.651Z,995.33
2019-01-18T01:09:47.670Z,995.35
2019-01-18T01:10:47.685Z,995.36
2019-01-18T01:11:47.701Z,995.39
2019-01-18T01:12:47.717Z,995.4
2019-01-18T01:13:47.732Z,995.39
2019-01-18T01:14:47.750Z,995.44
2019-01-18T01:15:47.767Z,995.42
2019-01-18T01:16:47.787Z,995.47
2019-01-18T01:17:47.798Z,995.51
2019-01-18T01:18:47.819Z,995.5
2019-01-18T01:19:47.836Z,995.55
2019-01-18T01:20:47.848Z,995.56
2019-01-18T01:21:47.864Z,995.59
2019-01-18T01:22:47.883Z,995.54
2019-01-18T01:23:47.901Z,995.65
2019-01-18T01:24:47.912Z,995.66
2019-01-18T01:25:47.928Z,995.66
2019-01-18T01:26:47.945Z,995.72
2019-01-18T01:27:47.962Z,995.75
2019-01-18T01:28:47.981Z,995.75
2019-01-18T01:29:47.994Z,995.8
2019-01-18T01:30:48.014Z,995.77
2019-01-18T01:31:48.027Z,995.83
2019-01-18T01:32:48.044Z,995.84
2019-01-18T01:33:48.058Z,995.88
2019-01-18T01:34:48.077Z,995.92
2019-01-18T01:35:48.093Z,995.9
2019-01-18T01:36:48.108Z,995.91
2019-01-18T01:37:48.123Z,995.94
2019-01-18T01:38:48.141Z,995.96
2019-01-18T01:39:48.160Z,995.98
2019-01-18T01:40:48.172Z,995.98
2019-01-18T01:41:48.189Z,996.02
2019-01-18T01:42:48.211Z,996.05
2019-01-18T01:43:48.222Z,996.07
2019-01-18T01:44:48.238Z,996.08
2019-01-18T01:45:48.259Z,996.07
2019-01-18T01:46:48.270Z,996.13
2019-01-18T01:47:48.287Z,996.19
2019-01-18T01:48:48.307Z,996.2
2019-01-18T01:49:48.320Z,996.19
2019-01-18T01:50:48.336Z,996.17
2019-01-18T01:51:48.357Z,996.22
2019-01-18T01:52:48.367Z,996.21
2019-01-18T01:53:48.385Z,996.17
2019-01-18T01:54:48.400Z,996.18
2019-01-18T01:55:48.417Z,996.18
2019-01-18T01:56:48.434Z,996.16
2019-01-18T01:57:48.451Z,996.2
2019-01-18T01:58:48.467Z,996.21
2019-01-18T01:59:49.869Z,996.24
2019-01-18T02:00:48.504Z,996.26
2019-01-18T02:01:48.516Z,996.41
2019-01-18T02:02:48.531Z,996.47
2019-01-18T02:03:48.547Z,996.48
2019-01-18T02:04:48.568Z,996.47
2019-01-18T02:05:48.580Z,996.51
2019-01-18T02:06:48.596Z,996.53
2019-01-18T02:07:48.614Z,996.54
2019-01-18T02:08:48.629Z,996.55
2019-01-18T02:09:48.648Z,996.6
2019-01-18T02:10:48.660Z,996.65
2019-01-18T02:11:48.678Z,996.63
2019-01-18T02:12:48.694Z,996.68
2019-01-18T02:13:48.710Z,996.75
2019-01-18T02:14:48.730Z,996.76
2019-01-18T02:15:48.743Z,996.81
2019-01-18T02:16:48.758Z,996.81
2019-01-18T02:17:48.774Z,996.81
2019-01-18T02:18:48.796Z,996.82
2019-01-18T02:19:48.806Z,996.89
2019-01-18T02:20:48.824Z,996.92
2019-01-18T02:21:48.844Z,996.92
2019-01-18T02:22:48.864Z,996.93
2019-01-18T02:23:48.872Z,996.98
2019-01-18T02:24:48.888Z,997.02
2019-01-18T02:25:48.905Z,997.09
2019-01-18T02:26:48.922Z,997.07
2019-01-18T02:27:48.939Z,997.13
2019-01-18T02:28:48.966Z,997.14
2019-01-18T02:29:48.974Z,997.17
2019-01-18T02:30:48.987Z,997.23
2019-01-18T02:31:49.006Z,997.27
2019-01-18T02:32:49.024Z,997.3
2019-01-18T02:33:49.035Z,997.31
2019-01-18T02:34:49.049Z,997.36
2019-01-18T02:35:49.066Z,997.34
2019-01-18T02:36:49.087Z,997.37
2019-01-18T02:37:49.101Z,997.29
2019-01-18T02:38:49.122Z,997.38
2019-01-18T02:39:49.133Z,997.36
2019-01-18T02:40:49.147Z,997.41
2019-01-18T02:41:49.163Z,997.4
2019-01-18T02:42:49.182Z,997.42
2019-01-18T02:43:49.199Z,997.46
2019-01-18T02:44:49.216Z,997.49
2019-01-18T02:45:49.227Z,997.47
2019-01-18T02:46:49.244Z,997.5
2019-01-18T02:47:49.264Z,997.51
2019-01-18T02:48:49.279Z,997.52
2019-01-18T02:49:49.292Z,997.56
2019-01-18T02:50:49.308Z,997.55
2019-01-18T02:51:49.324Z,997.56
2019-01-18T02:52:49.340Z,997.55
2019-01-18T02:53:49.356Z,997.6
2019-01-18T02:54:49.378Z,997.59
2019-01-18T02:55:49.396Z,997.63
2019-01-18T02:56:49.404Z,997.63
2019-01-18T02:57:49.431Z,997.67
2019-01-18T02:58:49.437Z,997.72
2019-01-18T02:59:49.452Z,997.68
2019-01-18T03:00:49.468Z,997.72
2019-01-18T03:01:49.488Z,997.72
2019-01-18T03:02:49.508Z,997.75
2019-01-18T03:03:49.517Z,997.76
2019-01-18T03:04:49.534Z,997.75
2019-01-18T03:05:49.550Z,997.79
2019-01-18T03:06:49.566Z,997.77
2019-01-18T03:07:49.585Z,997.77
2019-01-18T03:08:49.600Z,997.81
2019-01-18T03:09:49.617Z,997.81
2019-01-18T03:10:49.632Z,997.79
2019-01-18T03:11:49.648Z,997.81
2019-01-18T03:12:49.665Z,997.79
2019-01-18T03:13:49.679Z,997.81
2019-01-18T03:14:49.698Z,997.81
2019-01-18T03:15:49.709Z,997.81
2019-01-18T03:16:49.725Z,997.86
2019-01-18T03:17:49.743Z,997.84
2019-01-18T03:18:49.757Z,997.9
2019-01-18T03:19:49.773Z,997.9
2019-01-18T03:20:49.790Z,997.94
2019-01-18T03:21:49.805Z,997.9
2019-01-18T03:22:49.820Z,997.94
2019-01-18T03:23:49.836Z,997.99
2019-01-18T03:24:49.855Z,997.98
2019-01-18T03:25:49.871Z,998.04
2019-01-18T03:26:49.889Z,998.04
2019-01-18T03:27:49.910Z,998.07
2019-01-18T03:28:49.918Z,998.05
2019-01-18T03:29:49.933Z,998.13
2019-01-18T03:30:49.950Z,998.13
2019-01-18T03:31:49.967Z,998.17
2019-01-18T03:32:49.993Z,998.14
2019-01-18T03:33:49.997Z,998.14
2019-01-18T03:34:50.013Z,998.16
2019-01-18T03:35:50.028Z,998.17
2019-01-18T03:36:50.043Z,998.19
2019-01-18T03:37:50.064Z,998.24
2019-01-18T03:38:50.078Z,998.25
2019-01-18T03:39:50.092Z,998.28
2019-01-18T03:40:50.110Z,998.32
2019-01-18T03:41:50.124Z,998.33
2019-01-18T03:42:50.139Z,998.33
2019-01-18T03:43:50.155Z,998.38
2019-01-18T03:44:50.177Z,998.35
2019-01-18T03:45:50.191Z,998.41
2019-01-18T03:46:50.207Z,998.39
2019-01-18T03:47:50.222Z,998.46
2019-01-18T03:48:50.236Z,998.48
2019-01-18T03:49:50.255Z,998.48
2019-01-18T03:50:50.268Z,998.51
2019-01-18T03:51:50.284Z,998.51
2019-01-18T03:52:50.301Z,998.53
2019-01-18T03:53:50.316Z,998.57
2019-01-18T03:54:50.334Z,998.62
2019-01-18T03:55:50.348Z,998.63
2019-01-18T03:56:50.364Z,998.64
2019-01-18T03:57:50.386Z,998.61
2019-01-18T03:58:50.404Z,998.63
2019-01-18T03:59:50.411Z,998.67
2019-01-18T04:00:50.427Z,998.72
2019-01-18T04:01:50.444Z,998.68
2019-01-18T04:02:50.464Z,998.65
2019-01-18T04:03:50.475Z,998.68
2019-01-18T04:04:50.497Z,998.7
2019-01-18T04:05:50.509Z,998.66
2019-01-18T04:06:50.525Z,998.64
2019-01-18T04:07:50.539Z,998.67
2019-01-18T04:08:50.556Z,998.66
2019-01-18T04:09:50.570Z,998.68
2019-01-18T04:10:50.586Z,998.75
2019-01-18T04:11:50.704Z,998.74
2019-01-18T04:12:50.620Z,998.74
2019-01-18T04:13:50.639Z,998.7
2019-01-18T04:14:50.651Z,998.78
2019-01-18T04:15:50.671Z,998.76
2019-01-18T04:16:50.683Z,998.79
2019-01-18T04:17:50.717Z,998.84
2019-01-18T04:18:50.719Z,998.85
2019-01-18T04:19:50.731Z,998.88
2019-01-18T04:20:50.744Z,998.88
2019-01-18T04:21:50.762Z,998.85
2019-01-18T04:22:50.776Z,998.86
2019-01-18T04:23:50.798Z,998.85
2019-01-18T04:24:50.808Z,998.87
2019-01-18T04:25:50.825Z,998.84
2019-01-18T04:26:50.840Z,998.89
2019-01-18T04:27:50.857Z,998.87
2019-01-18T04:28:50.873Z,998.91
2019-01-18T04:29:50.890Z,998.97
2019-01-18T04:30:50.918Z,998.93
2019-01-18T04:31:50.927Z,998.93
2019-01-18T04:32:50.939Z,998.95
2019-01-18T04:33:50.952Z,998.94
2019-01-18T04:34:50.971Z,998.88
2019-01-18T04:35:50.982Z,998.94
2019-01-18T04:36:51.003Z,998.95
2019-01-18T04:37:51.016Z,998.94
2019-01-18T04:38:51.030Z,998.91
2019-01-18T04:39:51.046Z,998.94
2019-01-18T04:40:51.066Z,998.93
2019-01-18T04:41:51.083Z,998.96
2019-01-18T04:42:51.105Z,998.97
2019-01-18T04:43:51.118Z,998.96
2019-01-18T04:44:51.130Z,998.98
2019-01-18T04:45:51.141Z,999
2019-01-18T04:46:51.162Z,999
2019-01-18T04:47:51.173Z,999.02
2019-01-18T04:48:51.190Z,999.03
2019-01-18T04:49:51.209Z,999.02
2019-01-18T04:50:51.222Z,999.01
2019-01-18T04:51:51.241Z,999.03
2019-01-18T04:52:51.258Z,999.04
2019-01-18T04:53:51.268Z,999.07
2019-01-18T04:54:51.285Z,999.1
2019-01-18T04:55:51.306Z,999.08
2019-01-18T04:56:51.321Z,999.09
2019-01-18T04:57:51.334Z,999.08
2019-01-18T04:58:51.347Z,999.13
2019-01-18T04:59:51.363Z,999.1
2019-01-18T05:00:51.388Z,999.09
2019-01-18T05:01:51.395Z,999.13
2019-01-18T05:02:51.415Z,999.1
2019-01-18T05:03:51.426Z,999.12
2019-01-18T05:04:51.442Z,999.14
2019-01-18T05:05:51.459Z,999.13
2019-01-18T05:06:51.474Z,999.16
2019-01-18T05:07:51.489Z,999.15
2019-01-18T05:08:51.509Z,999.17
2019-01-18T05:09:51.522Z,999.2
2019-01-18T05:10:51.536Z,999.19
2019-01-18T05:11:51.552Z,999.23
2019-01-18T05:12:51.570Z,999.21
2019-01-18T05:13:51.584Z,999.23
2019-01-18T05:14:51.600Z,999.29
2019-01-18T05:15:51.619Z,999.3
2019-01-18T05:16:51.634Z,999.33
2019-01-18T05:17:51.650Z,999.32
2019-01-18T05:18:51.661Z,999.33
2019-01-18T05:19:51.686Z,999.34
2019-01-18T05:20:51.694Z,999.38
2019-01-18T05:21:51.709Z,999.42
2019-01-18T05:22:51.724Z,999.43
2019-01-18T05:23:51.744Z,999.46
2019-01-18T05:24:51.755Z,999.49
2019-01-18T05:25:51.772Z,999.47
2019-01-18T05:26:51.789Z,999.52
2019-01-18T05:27:51.808Z,999.58
2019-01-18T05:28:51.820Z,999.62
2019-01-18T05:29:51.835Z,999.67
2019-01-18T05:30:51.851Z,999.69
2019-01-18T05:31:51.870Z,999.72
2019-01-18T05:32:51.883Z,999.74
2019-01-18T05:33:51.905Z,999.74
2019-01-18T05:34:51.922Z,999.78
2019-01-18T05:35:51.932Z,999.8
2019-01-18T05:36:51.945Z,999.82
2019-01-18T05:37:51.961Z,999.84
2019-01-18T05:38:51.979Z,999.87
2019-01-18T05:39:51.993Z,999.89
2019-01-18T05:40:52.012Z,999.96
2019-01-18T05:41:52.023Z,999.95
2019-01-18T05:42:52.040Z,1000.04
2019-01-18T05:43:52.059Z,1000.03
2019-01-18T05:44:52.071Z,1000.05
2019-01-18T05:45:52.086Z,1000.11
2019-01-18T05:46:52.104Z,1000.15
2019-01-18T05:47:52.155Z,1000.15
2019-01-18T05:48:52.132Z,1000.18
2019-01-18T05:49:52.150Z,1000.17
2019-01-18T05:50:52.166Z,1000.22
2019-01-18T05:51:52.184Z,1000.23
2019-01-18T05:52:52.197Z,1000.28
2019-01-18T05:53:52.212Z,1000.26
2019-01-18T05:54:52.230Z,1000.28
2019-01-18T05:55:52.247Z,1000.25
2019-01-18T05:56:52.258Z,1000.32
2019-01-18T05:57:52.279Z,1000.31
2019-01-18T05:58:52.293Z,1000.32
2019-01-18T05:59:52.309Z,1000.35
2019-01-18T06:00:55.244Z,1000.35
2019-01-18T06:01:52.337Z,1000.45
2019-01-18T06:02:52.352Z,1000.36
2019-01-18T06:03:52.368Z,1000.38
2019-01-18T06:04:52.383Z,1000.37
2019-01-18T06:05:52.402Z,1000.38
2019-01-18T06:06:52.414Z,1000.39
2019-01-18T06:07:52.434Z,1000.43
2019-01-18T06:08:52.446Z,1000.41
2019-01-18T06:09:52.464Z,1000.41
2019-01-18T06:10:52.480Z,1000.44
2019-01-18T06:11:52.497Z,1000.41
2019-01-18T06:12:52.510Z,1000.42
2019-01-18T06:13:52.524Z,1000.47
2019-01-18T06:14:52.540Z,1000.47
2019-01-18T06:15:52.556Z,1000.5
2019-01-18T06:16:52.573Z,1000.48
2019-01-18T06:17:52.589Z,1000.52
2019-01-18T06:18:52.606Z,1000.53
2019-01-18T06:19:52.617Z,1000.56
2019-01-18T06:20:52.636Z,1000.56
2019-01-18T06:21:52.649Z,1000.53
2019-01-18T06:22:52.668Z,1000.61
2019-01-18T06:23:52.680Z,1000.53
2019-01-18T06:24:52.699Z,1000.57
2019-01-18T06:25:52.712Z,1000.57
2019-01-18T06:26:52.744Z,1000.59
2019-01-18T06:27:52.747Z,1000.58
2019-01-18T06:28:52.761Z,1000.59
2019-01-18T06:29:52.777Z,1000.64
2019-01-18T06:30:52.789Z,1000.65
2019-01-18T06:31:52.808Z,1000.63
2019-01-18T06:32:52.820Z,1000.64
2019-01-18T06:33:52.836Z,1000.63
2019-01-18T06:34:52.852Z,1000.67
2019-01-18T06:35:52.870Z,1000.66
2019-01-18T06:36:52.882Z,1000.68
2019-01-18T06:37:52.899Z,1000.64
2019-01-18T06:38:52.917Z,1000.67
2019-01-18T06:39:52.930Z,1000.67
2019-01-18T06:40:52.944Z,1000.69
2019-01-18T06:41:52.963Z,1000.7
2019-01-18T06:42:52.975Z,1000.72
2019-01-18T06:43:52.992Z,1000.74
2019-01-18T06:44:53.008Z,1000.76
2019-01-18T06:45:53.023Z,1000.76
2019-01-18T06:46:53.043Z,1000.8
2019-01-18T06:47:53.055Z,1000.8
2019-01-18T06:48:53.070Z,1000.8
2019-01-18T06:49:53.091Z,1000.8
2019-01-18T06:50:53.100Z,1000.85
2019-01-18T06:51:53.117Z,1000.86
2019-01-18T06:52:53.132Z,1000.86
2019-01-18T06:53:53.146Z,1000.84
2019-01-18T06:54:53.167Z,1000.86
2019-01-18T06:55:53.179Z,1000.87
2019-01-18T06:56:53.194Z,1000.98
2019-01-18T06:57:53.211Z,1000.99
2019-01-18T06:58:53.226Z,1000.97
2019-01-18T06:59:53.242Z,1000.98
2019-01-18T07:00:53.262Z,1001.03
2019-01-18T07:01:53.274Z,1001.08
2019-01-18T07:02:53.290Z,1001.04
2019-01-18T07:03:53.305Z,1001.06
2019-01-18T07:04:53.320Z,1001.08
2019-01-18T07:05:53.337Z,1001.14
2019-01-18T07:06:53.357Z,1001.12
2019-01-18T07:07:53.369Z,1001.16
2019-01-18T07:08:53.384Z,1001.15
2019-01-18T07:09:53.399Z,1001.16
2019-01-18T07:10:53.416Z,1001.19
2019-01-18T07:11:53.432Z,1001.22
2019-01-18T07:12:53.450Z,1001.19
2019-01-18T07:13:53.462Z,1001.19
2019-01-18T07:14:53.481Z,1001.21
2019-01-18T07:15:53.493Z,1001.28
2019-01-18T07:16:53.513Z,1001.28
2019-01-18T07:17:53.526Z,1001.28
2019-01-18T07:18:53.545Z,1001.27
2019-01-18T07:19:53.560Z,1001.31
2019-01-18T07:20:53.573Z,1001.37
2019-01-18T07:21:53.587Z,1001.38
2019-01-18T07:22:53.604Z,1001.36
2019-01-18T07:23:53.622Z,1001.36
2019-01-18T07:24:53.635Z,1001.4
2019-01-18T07:25:53.656Z,1001.43
2019-01-18T07:26:53.666Z,1001.39
2019-01-18T07:27:53.680Z,1001.43
2019-01-18T07:28:53.698Z,1001.42
2019-01-18T07:29:53.715Z,1001.48
2019-01-18T07:30:53.728Z,1001.5
2019-01-18T07:31:53.744Z,1001.51
2019-01-18T07:32:53.760Z,1001.52
2019-01-18T07:33:53.775Z,1001.55
2019-01-18T07:34:53.791Z,1001.6
2019-01-18T07:35:53.807Z,1001.61
2019-01-18T07:36:53.825Z,1001.63
2019-01-18T07:37:53.839Z,1001.61
2019-01-18T07:38:53.856Z,1001.58
2019-01-18T07:39:53.869Z,1001.62
2019-01-18T07:40:53.886Z,1001.64
2019-01-18T07:41:53.901Z,1001.64
2019-01-18T07:42:53.918Z,1001.66
2019-01-18T07:43:53.932Z,1001.68
2019-01-18T07:44:53.947Z,1001.7
2019-01-18T07:45:53.966Z,1001.73
2019-01-18T07:46:53.991Z,1001.79
2019-01-18T07:47:53.995Z,1001.79
2019-01-18T07:48:54.014Z,1001.84
2019-01-18T07:49:54.027Z,1001.8
2019-01-18T07:50:54.042Z,1001.81
2019-01-18T07:51:54.057Z,1001.83
2019-01-18T07:52:54.074Z,1001.83
2019-01-18T07:53:54.089Z,1001.88
2019-01-18T07:54:54.106Z,1001.89
2019-01-18T07:55:54.127Z,1001.93
2019-01-18T07:56:54.142Z,1001.97
2019-01-18T07:57:54.156Z,1001.92
2019-01-18T07:58:54.169Z,1001.97
2019-01-18T07:59:54.185Z,1001.94
2019-01-18T08:00:54.198Z,1001.98
2019-01-18T08:01:54.218Z,1001.98
2019-01-18T08:02:54.230Z,1002.07
2019-01-18T08:03:54.246Z,1002.06
2019-01-18T08:04:54.261Z,1002.05
2019-01-18T08:05:54.281Z,1002.08
2019-01-18T08:06:54.299Z,1002.12
2019-01-18T08:07:54.608Z,1002.18
2019-01-18T08:08:54.325Z,1002.18
2019-01-18T08:09:54.340Z,1002.19
2019-01-18T08:10:54.355Z,1002.3
2019-01-18T08:11:54.370Z,1002.28
2019-01-18T08:12:54.387Z,1002.3
2019-01-18T08:13:54.404Z,1002.24
2019-01-18T08:14:54.418Z,1002.29
2019-01-18T08:15:54.435Z,1002.29
2019-01-18T08:16:54.450Z,1002.28
2019-01-18T08:17:54.464Z,1002.33
2019-01-18T08:18:54.480Z,1002.36
2019-01-18T08:19:54.502Z,1002.29
2019-01-18T08:20:54.513Z,1002.35
2019-01-18T08:21:54.529Z,1002.37
2019-01-18T08:22:54.590Z,1002.35
2019-01-18T08:23:54.564Z,1002.38
2019-01-18T08:24:54.576Z,1002.35
2019-01-18T08:25:54.595Z,1002.37
2019-01-18T08:26:54.610Z,1002.41
2019-01-18T08:27:54.623Z,1002.4
2019-01-18T08:28:54.638Z,1002.41
2019-01-18T08:29:54.655Z,1002.44
2019-01-18T08:30:54.669Z,1002.44
2019-01-18T08:31:54.691Z,1002.4
2019-01-18T08:32:54.704Z,1002.43
2019-01-18T08:33:54.721Z,1002.49
2019-01-18T08:34:54.734Z,1002.48
2019-01-18T08:35:54.753Z,1002.52
2019-01-18T08:36:54.765Z,1002.53
2019-01-18T08:37:54.780Z,1002.56
2019-01-18T08:38:54.797Z,1002.57
2019-01-18T08:39:54.812Z,1002.57
2019-01-18T08:40:54.828Z,1002.63
2019-01-18T08:41:54.849Z,1002.66
2019-01-18T08:42:54.863Z,1002.61
2019-01-18T08:43:54.879Z,1002.64
2019-01-18T08:44:54.896Z,1002.62
2019-01-18T08:45:54.913Z,1002.66
2019-01-18T08:46:54.921Z,1002.69
2019-01-18T08:47:54.939Z,1002.64
2019-01-18T08:48:54.961Z,1002.66
2019-01-18T08:49:54.975Z,1002.69
2019-01-18T08:50:54.985Z,1002.67
2019-01-18T08:51:55.003Z,1002.67
2019-01-18T08:52:55.017Z,1002.68
2019-01-18T08:53:55.034Z,1002.68
2019-01-18T08:54:55.080Z,1002.71
2019-01-18T08:55:55.064Z,1002.74
2019-01-18T08:56:55.081Z,1002.74
2019-01-18T08:57:55.097Z,1002.77
2019-01-18T08:58:55.111Z,1002.76
2019-01-18T08:59:55.128Z,1002.8
2019-01-18T09:00:55.145Z,1002.8
2019-01-18T09:01:55.163Z,1002.84
2019-01-18T09:02:55.175Z,1002.82
2019-01-18T09:03:55.193Z,1002.82
2019-01-18T09:04:55.206Z,1002.87
2019-01-18T09:05:55.222Z,1002.9
2019-01-18T09:06:55.236Z,1002.92
2019-01-18T09:07:55.373Z,1002.94
2019-01-18T09:08:55.269Z,1002.94
2019-01-18T09:09:55.291Z,1002.93
2019-01-18T09:10:55.301Z,1002.94
2019-01-18T09:11:55.316Z,1002.91
2019-01-18T09:12:55.335Z,1002.91
2019-01-18T09:13:55.351Z,1002.92
2019-01-18T09:14:55.364Z,1002.9
2019-01-18T09:15:55.380Z,1002.94
2019-01-18T09:16:55.394Z,1002.96
2019-01-18T09:17:55.417Z,1002.95
2019-01-18T09:18:55.427Z,1002.99
2019-01-18T09:19:55.442Z,1002.93
2019-01-18T09:20:55.457Z,1003
2019-01-18T09:21:55.474Z,1002.99
2019-01-18T09:22:55.493Z,1003.01
2019-01-18T09:23:56.223Z,1003.01
2019-01-18T09:24:55.521Z,1003.02
2019-01-18T09:25:55.537Z,1003.02
2019-01-18T09:26:55.554Z,1003.06
2019-01-18T09:27:55.566Z,1003.03
2019-01-18T09:28:55.584Z,1003.03
2019-01-18T09:29:55.603Z,1003.07
2019-01-18T09:30:55.615Z,1003.08
2019-01-18T09:31:55.631Z,1003.08
2019-01-18T09:32:55.646Z,1003.09
2019-01-18T09:33:55.663Z,1003.18
2019-01-18T09:34:55.681Z,1003.13
2019-01-18T09:35:55.698Z,1003.15
2019-01-18T09:36:55.716Z,1003.15
2019-01-18T09:37:55.727Z,1003.15
2019-01-18T09:38:55.744Z,1003.18
2019-01-18T09:39:55.756Z,1003.19
2019-01-18T09:40:55.778Z,1003.25
2019-01-18T09:41:55.788Z,1003.25
2019-01-18T09:42:55.806Z,1003.27
2019-01-18T09:43:55.820Z,1003.22
2019-01-18T09:44:55.840Z,1003.28
2019-01-18T09:45:55.853Z,1003.35
2019-01-18T09:46:55.867Z,1003.32
2019-01-18T09:47:55.883Z,1003.29
2019-01-18T09:48:55.903Z,1003.31
2019-01-18T09:49:55.914Z,1003.3
2019-01-18T09:50:55.935Z,1003.31
2019-01-18T09:51:55.946Z,1003.29
2019-01-18T09:52:55.965Z,1003.29
2019-01-18T09:53:55.979Z,1003.27
2019-01-18T09:54:55.996Z,1003.31
2019-01-18T09:55:56.011Z,1003.3
2019-01-18T09:56:56.027Z,1003.29
2019-01-18T09:57:56.041Z,1003.28
2019-01-18T09:58:56.056Z,1003.29
2019-01-18T09:59:56.074Z,1003.22
2019-01-18T10:00:56.093Z,1003.25
2019-01-18T10:01:56.106Z,1003.31
2019-01-18T10:02:56.120Z,1003.25
2019-01-18T10:03:56.136Z,1003.24
2019-01-18T10:04:56.152Z,1003.24
2019-01-18T10:05:56.168Z,1003.27
2019-01-18T10:06:56.187Z,1003.26
2019-01-18T10:07:56.199Z,1003.27
2019-01-18T10:08:56.220Z,1003.26
2019-01-18T10:09:56.235Z,1003.2
2019-01-18T10:10:56.248Z,1003.21
2019-01-18T10:11:56.264Z,1003.24
2019-01-18T10:12:56.284Z,1003.27
2019-01-18T10:13:56.297Z,1003.23
2019-01-18T10:14:56.311Z,1003.23
2019-01-18T10:15:56.331Z,1003.23
2019-01-18T10:16:56.344Z,1003.22
2019-01-18T10:18:00.515Z,1003.25
2019-01-18T10:18:56.377Z,1003.25
2019-01-18T10:19:56.390Z,1003.25
2019-01-18T10:20:56.408Z,1003.27
2019-01-18T10:21:56.423Z,1003.29
2019-01-18T10:22:56.442Z,1003.28
2019-01-18T10:23:56.455Z,1003.28
2019-01-18T10:24:56.471Z,1003.26
2019-01-18T10:25:56.490Z,1003.32
2019-01-18T10:26:56.506Z,1003.28
2019-01-18T10:27:56.524Z,1003.25
2019-01-18T10:28:56.534Z,1003.26
2019-01-18T10:29:56.552Z,1003.23
2019-01-18T10:30:56.566Z,1003.23
2019-01-18T10:31:56.598Z,1003.23
2019-01-18T10:32:56.599Z,1003.24
2019-01-18T10:33:56.618Z,1003.27
2019-01-18T10:34:56.634Z,1003.24
2019-01-18T10:35:56.647Z,1003.21
2019-01-18T10:36:56.666Z,1003.18
2019-01-18T10:37:56.677Z,1003.2
2019-01-18T10:38:56.694Z,1003.18
2019-01-18T10:39:56.710Z,1003.19
2019-01-18T10:40:56.729Z,1003.18
2019-01-18T10:41:56.743Z,1003.2
2019-01-18T10:42:56.757Z,1003.2
2019-01-18T10:43:56.772Z,1003.23
2019-01-18T10:44:56.789Z,1003.24
2019-01-18T10:45:56.806Z,1003.21
2019-01-18T10:46:56.825Z,1003.23
2019-01-18T10:47:56.843Z,1003.22
2019-01-18T10:48:56.852Z,1003.19
2019-01-18T10:49:56.869Z,1003.25
2019-01-18T10:50:56.887Z,1003.23
2019-01-18T10:51:56.905Z,1003.2
2019-01-18T10:52:56.920Z,1003.25
2019-01-18T10:53:56.934Z,1003.23
2019-01-18T10:54:56.949Z,1003.23
2019-01-18T10:55:56.970Z,1003.26
2019-01-18T10:56:56.983Z,1003.25
2019-01-18T10:57:57.002Z,1003.29
2019-01-18T10:58:57.018Z,1003.21
2019-01-18T10:59:57.028Z,1003.25
2019-01-18T11:00:57.049Z,1003.24
2019-01-18T11:02:00.789Z,1003.28
2019-01-18T11:02:57.078Z,1003.28
2019-01-18T11:03:57.349Z,1003.26
2019-01-18T11:04:57.109Z,1003.25
2019-01-18T11:05:57.125Z,1003.22
2019-01-18T11:06:57.141Z,1003.23
2019-01-18T11:07:57.157Z,1003.24
2019-01-18T11:08:57.175Z,1003.22
2019-01-18T11:09:57.188Z,1003.2
2019-01-18T11:10:57.206Z,1003.24
2019-01-18T11:11:57.222Z,1003.24
2019-01-18T11:12:57.238Z,1003.18
2019-01-18T11:13:57.484Z,1003.19
2019-01-18T11:14:57.269Z,1003.19
2019-01-18T11:15:57.286Z,1003.14
2019-01-18T11:16:57.301Z,1003.17
2019-01-18T11:17:57.322Z,1003.14
2019-01-18T11:18:57.332Z,1003.18
2019-01-18T11:19:57.350Z,1003.2
2019-01-18T11:20:57.369Z,1003.17
2019-01-18T11:21:57.381Z,1003.21
2019-01-18T11:22:57.396Z,1003.21
2019-01-18T11:23:57.413Z,1003.24
2019-01-18T11:24:57.429Z,1003.23
2019-01-18T11:25:57.444Z,1003.26
2019-01-18T11:26:57.462Z,1003.26
2019-01-18T11:27:57.477Z,1003.2
2019-01-18T11:28:57.493Z,1003.19
2019-01-18T11:29:57.510Z,1003.2
2019-01-18T11:30:57.527Z,1003.21
2019-01-18T11:31:57.541Z,1003.23
2019-01-18T11:32:57.558Z,1003.19
2019-01-18T11:33:57.573Z,1003.22
2019-01-18T11:34:57.590Z,1003.2
2019-01-18T11:35:57.609Z,1003.25
2019-01-18T11:36:58.225Z,1003.23
2019-01-18T11:37:57.641Z,1003.25
2019-01-18T11:38:57.656Z,1003.24
2019-01-18T11:39:57.670Z,1003.25
2019-01-18T11:40:57.686Z,1003.28
2019-01-18T11:41:57.705Z,1003.27
2019-01-18T11:42:57.717Z,1003.25
2019-01-18T11:43:57.732Z,1003.22
2019-01-18T11:44:57.750Z,1003.22
2019-01-18T11:45:57.766Z,1003.21
2019-01-18T11:46:57.782Z,1003.24
2019-01-18T11:47:57.797Z,1003.18
2019-01-18T11:48:57.814Z,1003.15
2019-01-18T11:49:57.830Z,1003.17
2019-01-18T11:50:57.849Z,1003.13
2019-01-18T11:51:57.861Z,1003.11
2019-01-18T11:52:57.882Z,1003.1
2019-01-18T11:53:57.894Z,1003.09
2019-01-18T11:54:57.909Z,1003.05
2019-01-18T11:55:57.930Z,1003.05
2019-01-18T11:56:57.941Z,1003.03
2019-01-18T11:57:57.961Z,1003.03
2019-01-18T11:58:57.973Z,1003.02
2019-01-18T11:59:57.993Z,1003
2019-01-18T12:00:58.005Z,1003.04
2019-01-18T12:01:58.026Z,1003.06
2019-01-18T12:02:58.044Z,1003.06
2019-01-18T12:03:58.054Z,1003.02
2019-01-18T12:04:58.070Z,1003.01
2019-01-18T12:05:58.090Z,1003.04
2019-01-18T12:06:58.102Z,1003.06
2019-01-18T12:07:58.121Z,1003.09
2019-01-18T12:08:58.134Z,1003.07
2019-01-18T12:09:58.164Z,1003.08
2019-01-18T12:10:58.165Z,1003.11
2019-01-18T12:11:58.180Z,1003.1
2019-01-18T12:12:58.200Z,1003.13
2019-01-18T12:13:58.218Z,1003.09
2019-01-18T12:14:58.233Z,1003.12
2019-01-18T12:15:58.245Z,1003.08
2019-01-18T12:16:58.261Z,1003.11
2019-01-18T12:17:58.279Z,1003.09
2019-01-18T12:18:58.293Z,1003.13